createdAt,value
2023-03-11T00:09:39.313Z,100
2023-03-11T00:28:59.117Z,100
2023-03-11T00:48:18.460Z,100
2023-03-11T01:07:38.183Z,100
2023-03-11T01:26:57.787Z,100
2023-03-11T01:46:17.844Z,100
2023-03-11T02:05:36.737Z,100
2023-03-11T02:24:55.487Z,100
2023-03-11T02:44:15.072Z,100
2023-03-11T03:03:34.550Z,100
2023-03-11T03:22:56.420Z,100
2023-03-11T03:42:14.404Z,100
2023-03-11T04:01:35.199Z,100
2023-03-11T04:20:56.318Z,100
2023-03-11T04:40:15.007Z,100
2023-03-11T04:59:33.629Z,100
2023-03-11T05:18:51.660Z,100
2023-03-11T05:38:08.304Z,100
2023-03-11T05:57:27.489Z,100
2023-03-11T06:16:46.428Z,100
2023-03-11T06:36:03.564Z,100
2023-03-11T06:55:24.914Z,100
2023-03-11T07:14:44.621Z,95.7
2023-03-11T07:34:03.785Z,95.7
2023-03-11T07:53:23.679Z,93.7
2023-03-11T08:12:45.351Z,85.2
2023-03-11T08:32:14.437Z,74.1
2023-03-11T08:51:43.038Z,62
2023-03-11T09:11:05.932Z,65.3
2023-03-11T09:30:24.144Z,63.4
2023-03-11T09:49:48.756Z,56.9
2023-03-11T10:09:00.839Z,54.2
2023-03-11T10:28:15.108Z,53.5
2023-03-11T10:47:37.304Z,57.7
2023-03-11T11:06:52.785Z,59.1
2023-03-11T11:26:08.769Z,58.4
2023-03-11T11:45:30.731Z,58.5
2023-03-11T12:04:46.126Z,55.6
2023-03-11T12:24:04.293Z,61.1
2023-03-11T12:43:19.778Z,58
2023-03-11T13:02:39.849Z,56.2
2023-03-11T13:21:58.527Z,57.3
2023-03-11T13:41:15.242Z,57
2023-03-11T14:00:35.079Z,54.9
2023-03-11T14:19:51.440Z,55.7
2023-03-11T14:39:11.002Z,57.2
2023-03-11T14:58:30.672Z,50.3
2023-03-11T15:17:51.021Z,56.1
2023-03-11T15:37:08.631Z,55.7
2023-03-11T15:56:26.547Z,59.8
2023-03-11T16:15:44.122Z,62
2023-03-11T16:35:02.298Z,54.5
2023-03-11T16:54:20.380Z,59.2
2023-03-11T17:13:38.088Z,62.1
2023-03-11T17:32:51.158Z,67
2023-03-11T17:52:07.739Z,68.9
2023-03-11T18:11:26.577Z,69.7
2023-03-11T18:30:44.396Z,74
2023-03-11T18:50:02.614Z,78.1
2023-03-11T19:09:21.603Z,80.9
2023-03-11T19:28:41.039Z,82.8
2023-03-11T19:47:59.254Z,82.1
2023-03-11T20:07:17.281Z,84.7
2023-03-11T20:26:35.288Z,85.6
2023-03-11T20:45:52.576Z,87.8
2023-03-11T21:05:11.641Z,88.1
2023-03-11T21:24:18.154Z,92.4
2023-03-11T21:43:36.746Z,94.5
2023-03-11T22:02:53.535Z,92.5
2023-03-11T22:22:11.321Z,94.8
2023-03-11T22:41:31.402Z,97.5
2023-03-11T23:00:48.564Z,98.5
2023-03-11T23:20:07.309Z,99
2023-03-11T23:39:28.831Z,98.8
2023-03-11T23:58:46.829Z,99.6
